<?xml version="1.0" encoding="UTF-8" standalone="no" ?>
<gpx xmlns="http://www.topografix.com/GPX/1/1" xmlns:xsi="http://www.w3.org/2001/XMLSchema-instance" xsi:schemaLocation="http://www.topografix.com/GPX/1/1 http://www.topografix.com/GPX/1/1/gpx.xsd" version="1.1" creator="VisuGPX - https://www.visugpx.com">
  <metadata>
    <name>Les 16 écluses du Canal du Nivernais</name>
    <desc><![CDATA[Départ de l\'écluse N° 16... arrivée à l\'étang de Baye, et retour]]></desc>
  </metadata>
  <trk>
    <name><![CDATA[Sardy les Epiry 16 écluses]]></name>
    <trkseg>
      <trkpt lat="47.19394" lon="3.69533">
        <ele>267</ele>
        <time>2013-08-13T12:11:36Z</time>
      </trkpt>
      <trkpt lat="47.19377" lon="3.69514">
        <ele>269</ele>
        <time>2013-08-13T12:12:45Z</time>
      </trkpt>
      <trkpt lat="47.19355" lon="3.69488">
        <ele>269</ele>
        <time>2013-08-13T12:12:55Z</time>
      </trkpt>
      <trkpt lat="47.19341" lon="3.69469">
        <ele>269</ele>
        <time>2013-08-13T12:13:03Z</time>
      </trkpt>
      <trkpt lat="47.19323" lon="3.69448">
        <ele>269</ele>
        <time>2013-08-13T12:13:10Z</time>
      </trkpt>
      <trkpt lat="47.19313" lon="3.69436">
        <ele>268</ele>
        <time>2013-08-13T12:13:15Z</time>
      </trkpt>
      <trkpt lat="47.19314" lon="3.69412">
        <ele>270</ele>
        <time>2013-08-13T12:13:24Z</time>
      </trkpt>
      <trkpt lat="47.19337" lon="3.69416">
        <ele>273</ele>
        <time>2013-08-13T12:13:33Z</time>
      </trkpt>
      <trkpt lat="47.19355" lon="3.6945">
        <ele>268</ele>
        <time>2013-08-13T12:13:39Z</time>
      </trkpt>
      <trkpt lat="47.19357" lon="3.69453">
        <ele>268</ele>
        <time>2013-08-13T12:13:41Z</time>
      </trkpt>
      <trkpt lat="47.19344" lon="3.69422">
        <ele>266</ele>
        <time>2013-08-13T12:15:04Z</time>
      </trkpt>
      <trkpt lat="47.19331" lon="3.69399">
        <ele>271</ele>
        <time>2013-08-13T12:15:14Z</time>
      </trkpt>
      <trkpt lat="47.19315" lon="3.69386">
        <ele>271</ele>
        <time>2013-08-13T12:15:27Z</time>
      </trkpt>
      <trkpt lat="47.19307" lon="3.69373">
        <ele>272</ele>
        <time>2013-08-13T12:15:36Z</time>
      </trkpt>
      <trkpt lat="47.19286" lon="3.69348">
        <ele>270</ele>
        <time>2013-08-13T12:15:48Z</time>
      </trkpt>
      <trkpt lat="47.19266" lon="3.69321">
        <ele>270</ele>
        <time>2013-08-13T12:15:56Z</time>
      </trkpt>
      <trkpt lat="47.19247" lon="3.69296">
        <ele>267</ele>
        <time>2013-08-13T12:16:03Z</time>
      </trkpt>
      <trkpt lat="47.19232" lon="3.6927">
        <ele>270</ele>
        <time>2013-08-13T12:16:11Z</time>
      </trkpt>
      <trkpt lat="47.19207" lon="3.69237">
        <ele>269</ele>
        <time>2013-08-13T12:16:20Z</time>
      </trkpt>
      <trkpt lat="47.19193" lon="3.69216">
        <ele>272</ele>
        <time>2013-08-13T12:16:26Z</time>
      </trkpt>
      <trkpt lat="47.19174" lon="3.69184">
        <ele>265</ele>
        <time>2013-08-13T12:16:33Z</time>
      </trkpt>
      <trkpt lat="47.19156" lon="3.6916">
        <ele>267</ele>
        <time>2013-08-13T12:16:40Z</time>
      </trkpt>
      <trkpt lat="47.19149" lon="3.6915">
        <ele>267</ele>
        <time>2013-08-13T12:16:43Z</time>
      </trkpt>
      <trkpt lat="47.19134" lon="3.69131">
        <ele>271</ele>
        <time>2013-08-13T12:16:50Z</time>
      </trkpt>
      <trkpt lat="47.19121" lon="3.69113">
        <ele>272</ele>
        <time>2013-08-13T12:16:58Z</time>
      </trkpt>
      <trkpt lat="47.19111" lon="3.69098">
        <ele>273</ele>
        <time>2013-08-13T12:17:08Z</time>
      </trkpt>
      <trkpt lat="47.19093" lon="3.69072">
        <ele>275</ele>
        <time>2013-08-13T12:17:21Z</time>
      </trkpt>
      <trkpt lat="47.19078" lon="3.6905">
        <ele>272</ele>
        <time>2013-08-13T12:17:33Z</time>
      </trkpt>
      <trkpt lat="47.19065" lon="3.69031">
        <ele>273</ele>
        <time>2013-08-13T12:17:42Z</time>
      </trkpt>
      <trkpt lat="47.19058" lon="3.69017">
        <ele>272</ele>
        <time>2013-08-13T12:17:48Z</time>
      </trkpt>
      <trkpt lat="47.19042" lon="3.68994">
        <ele>268</ele>
        <time>2013-08-13T12:17:57Z</time>
      </trkpt>
      <trkpt lat="47.1903" lon="3.68975">
        <ele>264</ele>
        <time>2013-08-13T12:18:04Z</time>
      </trkpt>
      <trkpt lat="47.19018" lon="3.68954">
        <ele>263</ele>
        <time>2013-08-13T12:18:14Z</time>
      </trkpt>
      <trkpt lat="47.19003" lon="3.68936">
        <ele>269</ele>
        <time>2013-08-13T12:18:24Z</time>
      </trkpt>
      <trkpt lat="47.18984" lon="3.68914">
        <ele>269</ele>
        <time>2013-08-13T12:18:34Z</time>
      </trkpt>
      <trkpt lat="47.18963" lon="3.68894">
        <ele>272</ele>
        <time>2013-08-13T12:18:42Z</time>
      </trkpt>
      <trkpt lat="47.18944" lon="3.68883">
        <ele>272</ele>
        <time>2013-08-13T12:18:49Z</time>
      </trkpt>
      <trkpt lat="47.18927" lon="3.68872">
        <ele>269</ele>
        <time>2013-08-13T12:18:57Z</time>
      </trkpt>
      <trkpt lat="47.18905" lon="3.68855">
        <ele>271</ele>
        <time>2013-08-13T12:19:07Z</time>
      </trkpt>
      <trkpt lat="47.18888" lon="3.68841">
        <ele>271</ele>
        <time>2013-08-13T12:19:15Z</time>
      </trkpt>
      <trkpt lat="47.1887" lon="3.68827">
        <ele>274</ele>
        <time>2013-08-13T12:19:29Z</time>
      </trkpt>
      <trkpt lat="47.18856" lon="3.68818">
        <ele>274</ele>
        <time>2013-08-13T12:19:40Z</time>
      </trkpt>
      <trkpt lat="47.18849" lon="3.68818">
        <ele>272</ele>
        <time>2013-08-13T12:19:46Z</time>
      </trkpt>
      <trkpt lat="47.18837" lon="3.68809">
        <ele>279</ele>
        <time>2013-08-13T12:20:23Z</time>
      </trkpt>
      <trkpt lat="47.18825" lon="3.68795">
        <ele>277</ele>
        <time>2013-08-13T12:20:30Z</time>
      </trkpt>
      <trkpt lat="47.18814" lon="3.68785">
        <ele>278</ele>
        <time>2013-08-13T12:20:36Z</time>
      </trkpt>
      <trkpt lat="47.18777" lon="3.68761">
        <ele>277</ele>
        <time>2013-08-13T12:20:49Z</time>
      </trkpt>
      <trkpt lat="47.18757" lon="3.68743">
        <ele>284</ele>
        <time>2013-08-13T12:20:57Z</time>
      </trkpt>
      <trkpt lat="47.18745" lon="3.68726">
        <ele>280</ele>
        <time>2013-08-13T12:21:03Z</time>
      </trkpt>
      <trkpt lat="47.18739" lon="3.68707">
        <ele>281</ele>
        <time>2013-08-13T12:21:08Z</time>
      </trkpt>
      <trkpt lat="47.18725" lon="3.68668">
        <ele>277</ele>
        <time>2013-08-13T12:21:16Z</time>
      </trkpt>
      <trkpt lat="47.18717" lon="3.68648">
        <ele>278</ele>
        <time>2013-08-13T12:21:22Z</time>
      </trkpt>
      <trkpt lat="47.1871" lon="3.68612">
        <ele>277</ele>
        <time>2013-08-13T12:21:31Z</time>
      </trkpt>
      <trkpt lat="47.18704" lon="3.68587">
        <ele>276</ele>
        <time>2013-08-13T12:21:38Z</time>
      </trkpt>
      <trkpt lat="47.18699" lon="3.68563">
        <ele>275</ele>
        <time>2013-08-13T12:21:44Z</time>
      </trkpt>
      <trkpt lat="47.18691" lon="3.68539">
        <ele>272</ele>
        <time>2013-08-13T12:21:51Z</time>
      </trkpt>
      <trkpt lat="47.1868" lon="3.68503">
        <ele>276</ele>
        <time>2013-08-13T12:22:00Z</time>
      </trkpt>
      <trkpt lat="47.18671" lon="3.68477">
        <ele>280</ele>
        <time>2013-08-13T12:22:07Z</time>
      </trkpt>
      <trkpt lat="47.18664" lon="3.6845">
        <ele>280</ele>
        <time>2013-08-13T12:22:14Z</time>
      </trkpt>
      <trkpt lat="47.18658" lon="3.68428">
        <ele>280</ele>
        <time>2013-08-13T12:22:19Z</time>
      </trkpt>
      <trkpt lat="47.18654" lon="3.68412">
        <ele>282</ele>
        <time>2013-08-13T12:22:23Z</time>
      </trkpt>
      <trkpt lat="47.18647" lon="3.68383">
        <ele>282</ele>
        <time>2013-08-13T12:22:31Z</time>
      </trkpt>
      <trkpt lat="47.18644" lon="3.68364">
        <ele>282</ele>
        <time>2013-08-13T12:22:36Z</time>
      </trkpt>
      <trkpt lat="47.18642" lon="3.68344">
        <ele>281</ele>
        <time>2013-08-13T12:22:40Z</time>
      </trkpt>
      <trkpt lat="47.18637" lon="3.68312">
        <ele>284</ele>
        <time>2013-08-13T12:22:47Z</time>
      </trkpt>
      <trkpt lat="47.18635" lon="3.68295">
        <ele>286</ele>
        <time>2013-08-13T12:22:51Z</time>
      </trkpt>
      <trkpt lat="47.18629" lon="3.68251">
        <ele>289</ele>
        <time>2013-08-13T12:23:01Z</time>
      </trkpt>
      <trkpt lat="47.18623" lon="3.68213">
        <ele>287</ele>
        <time>2013-08-13T12:23:10Z</time>
      </trkpt>
      <trkpt lat="47.18616" lon="3.68185">
        <ele>284</ele>
        <time>2013-08-13T12:23:16Z</time>
      </trkpt>
      <trkpt lat="47.18605" lon="3.68151">
        <ele>279</ele>
        <time>2013-08-13T12:23:24Z</time>
      </trkpt>
      <trkpt lat="47.18597" lon="3.68133">
        <ele>283</ele>
        <time>2013-08-13T12:23:29Z</time>
      </trkpt>
      <trkpt lat="47.1858" lon="3.68105">
        <ele>283</ele>
        <time>2013-08-13T12:23:37Z</time>
      </trkpt>
      <trkpt lat="47.18561" lon="3.68076">
        <ele>279</ele>
        <time>2013-08-13T12:23:46Z</time>
      </trkpt>
      <trkpt lat="47.18551" lon="3.6806">
        <ele>277</ele>
        <time>2013-08-13T12:23:51Z</time>
      </trkpt>
      <trkpt lat="47.18536" lon="3.68038">
        <ele>276</ele>
        <time>2013-08-13T12:23:58Z</time>
      </trkpt>
      <trkpt lat="47.18523" lon="3.68017">
        <ele>283</ele>
        <time>2013-08-13T12:24:06Z</time>
      </trkpt>
      <trkpt lat="47.18506" lon="3.67998">
        <ele>283</ele>
        <time>2013-08-13T12:24:17Z</time>
      </trkpt>
      <trkpt lat="47.18501" lon="3.6799">
        <ele>282</ele>
        <time>2013-08-13T12:24:24Z</time>
      </trkpt>
      <trkpt lat="47.18492" lon="3.67978">
        <ele>280</ele>
        <time>2013-08-13T12:24:33Z</time>
      </trkpt>
      <trkpt lat="47.18484" lon="3.67956">
        <ele>282</ele>
        <time>2013-08-13T12:25:21Z</time>
      </trkpt>
      <trkpt lat="47.1848" lon="3.67921">
        <ele>281</ele>
        <time>2013-08-13T12:25:32Z</time>
      </trkpt>
      <trkpt lat="47.1848" lon="3.6789">
        <ele>282</ele>
        <time>2013-08-13T12:25:39Z</time>
      </trkpt>
      <trkpt lat="47.1848" lon="3.67863">
        <ele>279</ele>
        <time>2013-08-13T12:25:46Z</time>
      </trkpt>
      <trkpt lat="47.18483" lon="3.67835">
        <ele>283</ele>
        <time>2013-08-13T12:25:53Z</time>
      </trkpt>
      <trkpt lat="47.18486" lon="3.67793">
        <ele>282</ele>
        <time>2013-08-13T12:26:02Z</time>
      </trkpt>
      <trkpt lat="47.18489" lon="3.67758">
        <ele>288</ele>
        <time>2013-08-13T12:26:10Z</time>
      </trkpt>
      <trkpt lat="47.18495" lon="3.67722">
        <ele>288</ele>
        <time>2013-08-13T12:26:19Z</time>
      </trkpt>
      <trkpt lat="47.18501" lon="3.67688">
        <ele>283</ele>
        <time>2013-08-13T12:26:27Z</time>
      </trkpt>
      <trkpt lat="47.18501" lon="3.67676">
        <ele>286</ele>
        <time>2013-08-13T12:26:30Z</time>
      </trkpt>
      <trkpt lat="47.18502" lon="3.6765">
        <ele>284</ele>
        <time>2013-08-13T12:26:40Z</time>
      </trkpt>
      <trkpt lat="47.18508" lon="3.67623">
        <ele>286</ele>
        <time>2013-08-13T12:26:52Z</time>
      </trkpt>
      <trkpt lat="47.18513" lon="3.67598">
        <ele>281</ele>
        <time>2013-08-13T12:27:03Z</time>
      </trkpt>
      <trkpt lat="47.18515" lon="3.67574">
        <ele>283</ele>
        <time>2013-08-13T12:27:14Z</time>
      </trkpt>
      <trkpt lat="47.18518" lon="3.67552">
        <ele>281</ele>
        <time>2013-08-13T12:27:24Z</time>
      </trkpt>
      <trkpt lat="47.18522" lon="3.67502">
        <ele>284</ele>
        <time>2013-08-13T12:27:39Z</time>
      </trkpt>
      <trkpt lat="47.18523" lon="3.6747">
        <ele>282</ele>
        <time>2013-08-13T12:27:48Z</time>
      </trkpt>
      <trkpt lat="47.18517" lon="3.67436">
        <ele>282</ele>
        <time>2013-08-13T12:27:58Z</time>
      </trkpt>
      <trkpt lat="47.18509" lon="3.67411">
        <ele>282</ele>
        <time>2013-08-13T12:28:07Z</time>
      </trkpt>
      <trkpt lat="47.18496" lon="3.67393">
        <ele>282</ele>
        <time>2013-08-13T12:28:16Z</time>
      </trkpt>
      <trkpt lat="47.18481" lon="3.67376">
        <ele>275</ele>
        <time>2013-08-13T12:28:27Z</time>
      </trkpt>
      <trkpt lat="47.18472" lon="3.67357">
        <ele>283</ele>
        <time>2013-08-13T12:28:35Z</time>
      </trkpt>
      <trkpt lat="47.18457" lon="3.67324">
        <ele>286</ele>
        <time>2013-08-13T12:28:47Z</time>
      </trkpt>
      <trkpt lat="47.18439" lon="3.67296">
        <ele>283</ele>
        <time>2013-08-13T12:28:56Z</time>
      </trkpt>
      <trkpt lat="47.18415" lon="3.67267">
        <ele>278</ele>
        <time>2013-08-13T12:29:06Z</time>
      </trkpt>
      <trkpt lat="47.18395" lon="3.67248">
        <ele>276</ele>
        <time>2013-08-13T12:29:14Z</time>
      </trkpt>
      <trkpt lat="47.18377" lon="3.67236">
        <ele>283</ele>
        <time>2013-08-13T12:29:20Z</time>
      </trkpt>
      <trkpt lat="47.18358" lon="3.67225">
        <ele>284</ele>
        <time>2013-08-13T12:29:27Z</time>
      </trkpt>
      <trkpt lat="47.18339" lon="3.67208">
        <ele>289</ele>
        <time>2013-08-13T12:29:36Z</time>
      </trkpt>
      <trkpt lat="47.1832" lon="3.67201">
        <ele>290</ele>
        <time>2013-08-13T12:29:45Z</time>
      </trkpt>
      <trkpt lat="47.18304" lon="3.67192">
        <ele>301</ele>
        <time>2013-08-13T12:29:53Z</time>
      </trkpt>
      <trkpt lat="47.18276" lon="3.67188">
        <ele>284</ele>
        <time>2013-08-13T12:30:02Z</time>
      </trkpt>
      <trkpt lat="47.18252" lon="3.67189">
        <ele>280</ele>
        <time>2013-08-13T12:30:10Z</time>
      </trkpt>
      <trkpt lat="47.18227" lon="3.67193">
        <ele>281</ele>
        <time>2013-08-13T12:30:18Z</time>
      </trkpt>
      <trkpt lat="47.18211" lon="3.6719">
        <ele>279</ele>
        <time>2013-08-13T12:30:24Z</time>
      </trkpt>
      <trkpt lat="47.18186" lon="3.67186">
        <ele>275</ele>
        <time>2013-08-13T12:30:33Z</time>
      </trkpt>
      <trkpt lat="47.1817" lon="3.67181">
        <ele>278</ele>
        <time>2013-08-13T12:30:40Z</time>
      </trkpt>
      <trkpt lat="47.18159" lon="3.67176">
        <ele>275</ele>
        <time>2013-08-13T12:30:45Z</time>
      </trkpt>
      <trkpt lat="47.18143" lon="3.67169">
        <ele>270</ele>
        <time>2013-08-13T12:30:53Z</time>
      </trkpt>
      <trkpt lat="47.18118" lon="3.67163">
        <ele>262</ele>
        <time>2013-08-13T12:31:04Z</time>
      </trkpt>
      <trkpt lat="47.18101" lon="3.67157">
        <ele>262</ele>
        <time>2013-08-13T12:31:10Z</time>
      </trkpt>
      <trkpt lat="47.18085" lon="3.67153">
        <ele>255</ele>
        <time>2013-08-13T12:31:16Z</time>
      </trkpt>
      <trkpt lat="47.18067" lon="3.67146">
        <ele>259</ele>
        <time>2013-08-13T12:31:23Z</time>
      </trkpt>
      <trkpt lat="47.1804" lon="3.67137">
        <ele>268</ele>
        <time>2013-08-13T12:31:32Z</time>
      </trkpt>
      <trkpt lat="47.18025" lon="3.67129">
        <ele>268</ele>
        <time>2013-08-13T12:31:43Z</time>
      </trkpt>
      <trkpt lat="47.18004" lon="3.67122">
        <ele>271</ele>
        <time>2013-08-13T12:32:11Z</time>
      </trkpt>
      <trkpt lat="47.1799" lon="3.67111">
        <ele>273</ele>
        <time>2013-08-13T12:32:24Z</time>
      </trkpt>
      <trkpt lat="47.17965" lon="3.67089">
        <ele>282</ele>
        <time>2013-08-13T12:32:42Z</time>
      </trkpt>
      <trkpt lat="47.17945" lon="3.67073">
        <ele>279</ele>
        <time>2013-08-13T12:32:52Z</time>
      </trkpt>
      <trkpt lat="47.17924" lon="3.6705">
        <ele>289</ele>
        <time>2013-08-13T12:33:01Z</time>
      </trkpt>
      <trkpt lat="47.17909" lon="3.67027">
        <ele>289</ele>
        <time>2013-08-13T12:33:09Z</time>
      </trkpt>
      <trkpt lat="47.179" lon="3.66995">
        <ele>298</ele>
        <time>2013-08-13T12:33:17Z</time>
      </trkpt>
      <trkpt lat="47.17891" lon="3.66968">
        <ele>292</ele>
        <time>2013-08-13T12:33:24Z</time>
      </trkpt>
      <trkpt lat="47.17885" lon="3.66948">
        <ele>300</ele>
        <time>2013-08-13T12:33:29Z</time>
      </trkpt>
      <trkpt lat="47.17873" lon="3.66927">
        <ele>299</ele>
        <time>2013-08-13T12:33:35Z</time>
      </trkpt>
      <trkpt lat="47.17865" lon="3.66905">
        <ele>298</ele>
        <time>2013-08-13T12:33:41Z</time>
      </trkpt>
      <trkpt lat="47.17857" lon="3.66878">
        <ele>298</ele>
        <time>2013-08-13T12:33:47Z</time>
      </trkpt>
      <trkpt lat="47.1785" lon="3.66852">
        <ele>294</ele>
        <time>2013-08-13T12:33:54Z</time>
      </trkpt>
      <trkpt lat="47.17843" lon="3.66828">
        <ele>301</ele>
        <time>2013-08-13T12:34:00Z</time>
      </trkpt>
      <trkpt lat="47.17832" lon="3.66801">
        <ele>299</ele>
        <time>2013-08-13T12:34:07Z</time>
      </trkpt>
      <trkpt lat="47.17823" lon="3.66782">
        <ele>304</ele>
        <time>2013-08-13T12:34:12Z</time>
      </trkpt>
      <trkpt lat="47.17812" lon="3.66744">
        <ele>303</ele>
        <time>2013-08-13T12:34:20Z</time>
      </trkpt>
      <trkpt lat="47.17803" lon="3.66713">
        <ele>300</ele>
        <time>2013-08-13T12:34:27Z</time>
      </trkpt>
      <trkpt lat="47.1779" lon="3.66687">
        <ele>306</ele>
        <time>2013-08-13T12:34:35Z</time>
      </trkpt>
      <trkpt lat="47.17782" lon="3.66663">
        <ele>305</ele>
        <time>2013-08-13T12:34:41Z</time>
      </trkpt>
      <trkpt lat="47.17772" lon="3.66635">
        <ele>299</ele>
        <time>2013-08-13T12:34:48Z</time>
      </trkpt>
      <trkpt lat="47.17762" lon="3.66611">
        <ele>303</ele>
        <time>2013-08-13T12:34:54Z</time>
      </trkpt>
      <trkpt lat="47.17753" lon="3.66589">
        <ele>303</ele>
        <time>2013-08-13T12:35:01Z</time>
      </trkpt>
      <trkpt lat="47.17743" lon="3.6656">
        <ele>301</ele>
        <time>2013-08-13T12:35:09Z</time>
      </trkpt>
      <trkpt lat="47.17738" lon="3.66542">
        <ele>305</ele>
        <time>2013-08-13T12:35:14Z</time>
      </trkpt>
      <trkpt lat="47.17738" lon="3.66508">
        <ele>303</ele>
        <time>2013-08-13T12:35:22Z</time>
      </trkpt>
      <trkpt lat="47.17742" lon="3.66486">
        <ele>307</ele>
        <time>2013-08-13T12:35:27Z</time>
      </trkpt>
      <trkpt lat="47.1775" lon="3.66457">
        <ele>309</ele>
        <time>2013-08-13T12:35:35Z</time>
      </trkpt>
      <trkpt lat="47.17758" lon="3.66428">
        <ele>309</ele>
        <time>2013-08-13T12:35:43Z</time>
      </trkpt>
      <trkpt lat="47.17769" lon="3.66384">
        <ele>306</ele>
        <time>2013-08-13T12:35:55Z</time>
      </trkpt>
      <trkpt lat="47.17779" lon="3.66357">
        <ele>310</ele>
        <time>2013-08-13T12:36:01Z</time>
      </trkpt>
      <trkpt lat="47.1779" lon="3.66328">
        <ele>315</ele>
        <time>2013-08-13T12:36:08Z</time>
      </trkpt>
      <trkpt lat="47.17794" lon="3.66299">
        <ele>318</ele>
        <time>2013-08-13T12:36:15Z</time>
      </trkpt>
      <trkpt lat="47.17794" lon="3.6628">
        <ele>319</ele>
        <time>2013-08-13T12:36:23Z</time>
      </trkpt>
      <trkpt lat="47.17805" lon="3.66274">
        <ele>326</ele>
        <time>2013-08-13T12:37:00Z</time>
      </trkpt>
      <trkpt lat="47.17805" lon="3.66274">
        <ele>326</ele>
        <time>2013-08-13T12:37:08Z</time>
      </trkpt>
      <trkpt lat="47.17801" lon="3.66253">
        <ele>306</ele>
        <time>2013-08-13T12:37:39Z</time>
      </trkpt>
      <trkpt lat="47.17798" lon="3.6623">
        <ele>310</ele>
        <time>2013-08-13T12:37:46Z</time>
      </trkpt>
      <trkpt lat="47.17796" lon="3.66205">
        <ele>310</ele>
        <time>2013-08-13T12:37:53Z</time>
      </trkpt>
      <trkpt lat="47.17783" lon="3.66182">
        <ele>306</ele>
        <time>2013-08-13T12:38:05Z</time>
      </trkpt>
      <trkpt lat="47.1775" lon="3.66154">
        <ele>309</ele>
        <time>2013-08-13T12:38:17Z</time>
      </trkpt>
      <trkpt lat="47.17724" lon="3.66136">
        <ele>313</ele>
        <time>2013-08-13T12:38:27Z</time>
      </trkpt>
      <trkpt lat="47.17714" lon="3.66122">
        <ele>318</ele>
        <time>2013-08-13T12:38:36Z</time>
      </trkpt>
      <trkpt lat="47.17714" lon="3.66122">
        <ele>318</ele>
        <time>2013-08-13T12:38:44Z</time>
      </trkpt>
      <trkpt lat="47.17694" lon="3.66155">
        <ele>318</ele>
        <time>2013-08-13T12:43:17Z</time>
      </trkpt>
      <trkpt lat="47.17685" lon="3.66157">
        <ele>316</ele>
        <time>2013-08-13T12:43:24Z</time>
      </trkpt>
      <trkpt lat="47.17667" lon="3.66136">
        <ele>318</ele>
        <time>2013-08-13T12:43:32Z</time>
      </trkpt>
      <trkpt lat="47.17648" lon="3.6612">
        <ele>308</ele>
        <time>2013-08-13T12:43:40Z</time>
      </trkpt>
      <trkpt lat="47.17623" lon="3.66102">
        <ele>310</ele>
        <time>2013-08-13T12:43:50Z</time>
      </trkpt>
      <trkpt lat="47.1761" lon="3.66091">
        <ele>307</ele>
        <time>2013-08-13T12:43:55Z</time>
      </trkpt>
      <trkpt lat="47.17582" lon="3.66078">
        <ele>303</ele>
        <time>2013-08-13T12:44:02Z</time>
      </trkpt>
      <trkpt lat="47.17561" lon="3.66058">
        <ele>311</ele>
        <time>2013-08-13T12:44:08Z</time>
      </trkpt>
      <trkpt lat="47.17543" lon="3.66038">
        <ele>312</ele>
        <time>2013-08-13T12:44:13Z</time>
      </trkpt>
      <trkpt lat="47.17524" lon="3.66021">
        <ele>314</ele>
        <time>2013-08-13T12:44:19Z</time>
      </trkpt>
      <trkpt lat="47.1751" lon="3.66007">
        <ele>317</ele>
        <time>2013-08-13T12:44:24Z</time>
      </trkpt>
      <trkpt lat="47.17492" lon="3.65987">
        <ele>318</ele>
        <time>2013-08-13T12:44:30Z</time>
      </trkpt>
      <trkpt lat="47.17476" lon="3.65965">
        <ele>321</ele>
        <time>2013-08-13T12:44:35Z</time>
      </trkpt>
      <trkpt lat="47.17458" lon="3.65944">
        <ele>322</ele>
        <time>2013-08-13T12:44:41Z</time>
      </trkpt>
      <trkpt lat="47.17433" lon="3.65923">
        <ele>312</ele>
        <time>2013-08-13T12:44:47Z</time>
      </trkpt>
      <trkpt lat="47.1742" lon="3.65911">
        <ele>315</ele>
        <time>2013-08-13T12:44:50Z</time>
      </trkpt>
      <trkpt lat="47.17399" lon="3.65884">
        <ele>308</ele>
        <time>2013-08-13T12:44:56Z</time>
      </trkpt>
      <trkpt lat="47.17379" lon="3.65869">
        <ele>303</ele>
        <time>2013-08-13T12:45:02Z</time>
      </trkpt>
      <trkpt lat="47.17356" lon="3.65854">
        <ele>306</ele>
        <time>2013-08-13T12:45:08Z</time>
      </trkpt>
      <trkpt lat="47.17334" lon="3.65833">
        <ele>309</ele>
        <time>2013-08-13T12:45:14Z</time>
      </trkpt>
      <trkpt lat="47.1731" lon="3.65816">
        <ele>308</ele>
        <time>2013-08-13T12:45:20Z</time>
      </trkpt>
      <trkpt lat="47.17277" lon="3.65804">
        <ele>314</ele>
        <time>2013-08-13T12:45:27Z</time>
      </trkpt>
      <trkpt lat="47.17259" lon="3.65791">
        <ele>322</ele>
        <time>2013-08-13T12:45:32Z</time>
      </trkpt>
      <trkpt lat="47.17236" lon="3.6578">
        <ele>324</ele>
        <time>2013-08-13T12:45:38Z</time>
      </trkpt>
      <trkpt lat="47.17199" lon="3.65753">
        <ele>328</ele>
        <time>2013-08-13T12:45:45Z</time>
      </trkpt>
      <trkpt lat="47.17173" lon="3.65743">
        <ele>322</ele>
        <time>2013-08-13T12:45:51Z</time>
      </trkpt>
      <trkpt lat="47.17148" lon="3.65728">
        <ele>324</ele>
        <time>2013-08-13T12:45:58Z</time>
      </trkpt>
      <trkpt lat="47.17134" lon="3.65708">
        <ele>328</ele>
        <time>2013-08-13T12:46:03Z</time>
      </trkpt>
      <trkpt lat="47.17116" lon="3.6568">
        <ele>326</ele>
        <time>2013-08-13T12:46:09Z</time>
      </trkpt>
      <trkpt lat="47.17106" lon="3.65645">
        <ele>327</ele>
        <time>2013-08-13T12:46:15Z</time>
      </trkpt>
      <trkpt lat="47.17097" lon="3.65606">
        <ele>322</ele>
        <time>2013-08-13T12:46:21Z</time>
      </trkpt>
      <trkpt lat="47.17089" lon="3.65573">
        <ele>326</ele>
        <time>2013-08-13T12:46:26Z</time>
      </trkpt>
      <trkpt lat="47.17076" lon="3.65537">
        <ele>328</ele>
        <time>2013-08-13T12:46:32Z</time>
      </trkpt>
      <trkpt lat="47.17066" lon="3.65506">
        <ele>320</ele>
        <time>2013-08-13T12:46:38Z</time>
      </trkpt>
      <trkpt lat="47.1707" lon="3.65487">
        <ele>322</ele>
        <time>2013-08-13T12:46:46Z</time>
      </trkpt>
      <trkpt lat="47.17078" lon="3.65487">
        <ele>322</ele>
        <time>2013-08-13T12:46:51Z</time>
      </trkpt>
      <trkpt lat="47.17059" lon="3.65484">
        <ele>316</ele>
        <time>2013-08-13T12:55:25Z</time>
      </trkpt>
      <trkpt lat="47.17059" lon="3.65484">
        <ele>316</ele>
        <time>2013-08-13T12:55:34Z</time>
      </trkpt>
      <trkpt lat="47.17051" lon="3.65467">
        <ele>335</ele>
        <time>2013-08-13T12:55:45Z</time>
      </trkpt>
      <trkpt lat="47.1704" lon="3.65435">
        <ele>332</ele>
        <time>2013-08-13T12:55:55Z</time>
      </trkpt>
      <trkpt lat="47.1703" lon="3.65406">
        <ele>338</ele>
        <time>2013-08-13T12:56:03Z</time>
      </trkpt>
      <trkpt lat="47.17019" lon="3.6538">
        <ele>331</ele>
        <time>2013-08-13T12:56:10Z</time>
      </trkpt>
      <trkpt lat="47.17006" lon="3.65355">
        <ele>331</ele>
        <time>2013-08-13T12:56:18Z</time>
      </trkpt>
      <trkpt lat="47.16995" lon="3.65332">
        <ele>336</ele>
        <time>2013-08-13T12:56:25Z</time>
      </trkpt>
      <trkpt lat="47.16985" lon="3.65314">
        <ele>333</ele>
        <time>2013-08-13T12:56:30Z</time>
      </trkpt>
      <trkpt lat="47.16974" lon="3.65291">
        <ele>330</ele>
        <time>2013-08-13T12:56:36Z</time>
      </trkpt>
      <trkpt lat="47.16961" lon="3.65264">
        <ele>332</ele>
        <time>2013-08-13T12:56:44Z</time>
      </trkpt>
      <trkpt lat="47.1695" lon="3.65243">
        <ele>328</ele>
        <time>2013-08-13T12:56:50Z</time>
      </trkpt>
      <trkpt lat="47.1694" lon="3.65226">
        <ele>326</ele>
        <time>2013-08-13T12:56:55Z</time>
      </trkpt>
      <trkpt lat="47.16922" lon="3.65199">
        <ele>335</ele>
        <time>2013-08-13T12:57:04Z</time>
      </trkpt>
      <trkpt lat="47.16911" lon="3.65186">
        <ele>346</ele>
        <time>2013-08-13T12:57:11Z</time>
      </trkpt>
      <trkpt lat="47.1687" lon="3.65129">
        <ele>340</ele>
        <time>2013-08-13T12:57:26Z</time>
      </trkpt>
      <trkpt lat="47.16858" lon="3.65109">
        <ele>340</ele>
        <time>2013-08-13T12:57:31Z</time>
      </trkpt>
      <trkpt lat="47.16846" lon="3.65092">
        <ele>337</ele>
        <time>2013-08-13T12:57:36Z</time>
      </trkpt>
      <trkpt lat="47.1684" lon="3.65083">
        <ele>337</ele>
        <time>2013-08-13T12:57:39Z</time>
      </trkpt>
      <trkpt lat="47.16825" lon="3.65058">
        <ele>335</ele>
        <time>2013-08-13T12:57:46Z</time>
      </trkpt>
      <trkpt lat="47.16809" lon="3.65032">
        <ele>338</ele>
        <time>2013-08-13T12:57:53Z</time>
      </trkpt>
      <trkpt lat="47.16794" lon="3.65003">
        <ele>327</ele>
        <time>2013-08-13T12:58:00Z</time>
      </trkpt>
      <trkpt lat="47.16782" lon="3.6497">
        <ele>331</ele>
        <time>2013-08-13T12:58:07Z</time>
      </trkpt>
      <trkpt lat="47.16773" lon="3.64945">
        <ele>324</ele>
        <time>2013-08-13T12:58:15Z</time>
      </trkpt>
      <trkpt lat="47.16772" lon="3.64941">
        <ele>325</ele>
        <time>2013-08-13T12:58:18Z</time>
      </trkpt>
      <trkpt lat="47.16764" lon="3.64929">
        <ele>325</ele>
        <time>2013-08-13T12:58:53Z</time>
      </trkpt>
      <trkpt lat="47.16748" lon="3.64893">
        <ele>327</ele>
        <time>2013-08-13T12:59:01Z</time>
      </trkpt>
      <trkpt lat="47.16737" lon="3.64862">
        <ele>331</ele>
        <time>2013-08-13T12:59:07Z</time>
      </trkpt>
      <trkpt lat="47.16725" lon="3.64833">
        <ele>336</ele>
        <time>2013-08-13T12:59:13Z</time>
      </trkpt>
      <trkpt lat="47.16713" lon="3.64805">
        <ele>336</ele>
        <time>2013-08-13T12:59:18Z</time>
      </trkpt>
      <trkpt lat="47.16702" lon="3.64778">
        <ele>333</ele>
        <time>2013-08-13T12:59:24Z</time>
      </trkpt>
      <trkpt lat="47.16695" lon="3.64753">
        <ele>331</ele>
        <time>2013-08-13T12:59:29Z</time>
      </trkpt>
      <trkpt lat="47.16688" lon="3.64724">
        <ele>331</ele>
        <time>2013-08-13T12:59:35Z</time>
      </trkpt>
      <trkpt lat="47.16682" lon="3.64694">
        <ele>329</ele>
        <time>2013-08-13T12:59:42Z</time>
      </trkpt>
      <trkpt lat="47.16684" lon="3.64654">
        <ele>326</ele>
        <time>2013-08-13T12:59:50Z</time>
      </trkpt>
      <trkpt lat="47.16688" lon="3.64628">
        <ele>319</ele>
        <time>2013-08-13T12:59:56Z</time>
      </trkpt>
      <trkpt lat="47.16697" lon="3.64593">
        <ele>315</ele>
        <time>2013-08-13T13:00:04Z</time>
      </trkpt>
      <trkpt lat="47.16706" lon="3.6457">
        <ele>315</ele>
        <time>2013-08-13T13:00:11Z</time>
      </trkpt>
      <trkpt lat="47.16718" lon="3.64535">
        <ele>320</ele>
        <time>2013-08-13T13:00:21Z</time>
      </trkpt>
      <trkpt lat="47.16728" lon="3.6451">
        <ele>313</ele>
        <time>2013-08-13T13:00:29Z</time>
      </trkpt>
      <trkpt lat="47.16741" lon="3.64486">
        <ele>319</ele>
        <time>2013-08-13T13:00:37Z</time>
      </trkpt>
      <trkpt lat="47.16741" lon="3.64486">
        <ele>319</ele>
        <time>2013-08-13T13:00:43Z</time>
      </trkpt>
      <trkpt lat="47.16747" lon="3.64468">
        <ele>319</ele>
        <time>2013-08-13T13:02:18Z</time>
      </trkpt>
      <trkpt lat="47.16757" lon="3.64448">
        <ele>307</ele>
        <time>2013-08-13T13:02:24Z</time>
      </trkpt>
      <trkpt lat="47.16769" lon="3.64415">
        <ele>310</ele>
        <time>2013-08-13T13:02:31Z</time>
      </trkpt>
      <trkpt lat="47.16774" lon="3.644">
        <ele>316</ele>
        <time>2013-08-13T13:02:36Z</time>
      </trkpt>
      <trkpt lat="47.16777" lon="3.64393">
        <ele>309</ele>
        <time>2013-08-13T13:02:39Z</time>
      </trkpt>
      <trkpt lat="47.16787" lon="3.64371">
        <ele>326</ele>
        <time>2013-08-13T13:03:01Z</time>
      </trkpt>
      <trkpt lat="47.16805" lon="3.64321">
        <ele>324</ele>
        <time>2013-08-13T13:03:11Z</time>
      </trkpt>
      <trkpt lat="47.16817" lon="3.64292">
        <ele>315</ele>
        <time>2013-08-13T13:03:17Z</time>
      </trkpt>
      <trkpt lat="47.16825" lon="3.64262">
        <ele>313</ele>
        <time>2013-08-13T13:03:24Z</time>
      </trkpt>
      <trkpt lat="47.16836" lon="3.64231">
        <ele>312</ele>
        <time>2013-08-13T13:03:32Z</time>
      </trkpt>
      <trkpt lat="47.16843" lon="3.64207">
        <ele>321</ele>
        <time>2013-08-13T13:03:38Z</time>
      </trkpt>
      <trkpt lat="47.16853" lon="3.64181">
        <ele>312</ele>
        <time>2013-08-13T13:03:44Z</time>
      </trkpt>
      <trkpt lat="47.16864" lon="3.64155">
        <ele>324</ele>
        <time>2013-08-13T13:03:51Z</time>
      </trkpt>
      <trkpt lat="47.16872" lon="3.6413">
        <ele>330</ele>
        <time>2013-08-13T13:03:56Z</time>
      </trkpt>
      <trkpt lat="47.16876" lon="3.64095">
        <ele>333</ele>
        <time>2013-08-13T13:04:02Z</time>
      </trkpt>
      <trkpt lat="47.16883" lon="3.64054">
        <ele>328</ele>
        <time>2013-08-13T13:04:10Z</time>
      </trkpt>
      <trkpt lat="47.16887" lon="3.64028">
        <ele>334</ele>
        <time>2013-08-13T13:04:17Z</time>
      </trkpt>
      <trkpt lat="47.16903" lon="3.63949">
        <ele>324</ele>
        <time>2013-08-13T13:04:30Z</time>
      </trkpt>
      <trkpt lat="47.16913" lon="3.63922">
        <ele>322</ele>
        <time>2013-08-13T13:04:36Z</time>
      </trkpt>
      <trkpt lat="47.16921" lon="3.63901">
        <ele>326</ele>
        <time>2013-08-13T13:04:41Z</time>
      </trkpt>
      <trkpt lat="47.16929" lon="3.63879">
        <ele>324</ele>
        <time>2013-08-13T13:04:47Z</time>
      </trkpt>
      <trkpt lat="47.16939" lon="3.63852">
        <ele>327</ele>
        <time>2013-08-13T13:04:54Z</time>
      </trkpt>
      <trkpt lat="47.16952" lon="3.63825">
        <ele>327</ele>
        <time>2013-08-13T13:05:02Z</time>
      </trkpt>
      <trkpt lat="47.16961" lon="3.63789">
        <ele>330</ele>
        <time>2013-08-13T13:05:11Z</time>
      </trkpt>
      <trkpt lat="47.16968" lon="3.63761">
        <ele>333</ele>
        <time>2013-08-13T13:05:18Z</time>
      </trkpt>
      <trkpt lat="47.16972" lon="3.63722">
        <ele>331</ele>
        <time>2013-08-13T13:05:28Z</time>
      </trkpt>
      <trkpt lat="47.16975" lon="3.63687">
        <ele>331</ele>
        <time>2013-08-13T13:05:38Z</time>
      </trkpt>
      <trkpt lat="47.16974" lon="3.63662">
        <ele>337</ele>
        <time>2013-08-13T13:05:47Z</time>
      </trkpt>
      <trkpt lat="47.1697" lon="3.63613">
        <ele>334</ele>
        <time>2013-08-13T13:05:58Z</time>
      </trkpt>
      <trkpt lat="47.16968" lon="3.63586">
        <ele>349</ele>
        <time>2013-08-13T13:06:04Z</time>
      </trkpt>
      <trkpt lat="47.16967" lon="3.63558">
        <ele>344</ele>
        <time>2013-08-13T13:06:11Z</time>
      </trkpt>
      <trkpt lat="47.1697" lon="3.63537">
        <ele>333</ele>
        <time>2013-08-13T13:06:17Z</time>
      </trkpt>
      <trkpt lat="47.16975" lon="3.63513">
        <ele>333</ele>
        <time>2013-08-13T13:06:24Z</time>
      </trkpt>
      <trkpt lat="47.16979" lon="3.63491">
        <ele>333</ele>
        <time>2013-08-13T13:06:29Z</time>
      </trkpt>
      <trkpt lat="47.16984" lon="3.63472">
        <ele>333</ele>
        <time>2013-08-13T13:06:35Z</time>
      </trkpt>
      <trkpt lat="47.16993" lon="3.63441">
        <ele>328</ele>
        <time>2013-08-13T13:06:43Z</time>
      </trkpt>
      <trkpt lat="47.16997" lon="3.63416">
        <ele>333</ele>
        <time>2013-08-13T13:06:48Z</time>
      </trkpt>
      <trkpt lat="47.17003" lon="3.63385">
        <ele>335</ele>
        <time>2013-08-13T13:06:54Z</time>
      </trkpt>
      <trkpt lat="47.17012" lon="3.63355">
        <ele>328</ele>
        <time>2013-08-13T13:07:01Z</time>
      </trkpt>
      <trkpt lat="47.17018" lon="3.63324">
        <ele>330</ele>
        <time>2013-08-13T13:07:07Z</time>
      </trkpt>
      <trkpt lat="47.17022" lon="3.63294">
        <ele>336</ele>
        <time>2013-08-13T13:07:12Z</time>
      </trkpt>
      <trkpt lat="47.17022" lon="3.63265">
        <ele>333</ele>
        <time>2013-08-13T13:07:18Z</time>
      </trkpt>
      <trkpt lat="47.1702" lon="3.63233">
        <ele>334</ele>
        <time>2013-08-13T13:07:28Z</time>
      </trkpt>
      <trkpt lat="47.1702" lon="3.63233">
        <ele>334</ele>
        <time>2013-08-13T13:07:37Z</time>
      </trkpt>
      <trkpt lat="47.17013" lon="3.63213">
        <ele>341</ele>
        <time>2013-08-13T13:17:21Z</time>
      </trkpt>
      <trkpt lat="47.17026" lon="3.63157">
        <ele>333</ele>
        <time>2013-08-13T13:17:31Z</time>
      </trkpt>
      <trkpt lat="47.17029" lon="3.63122">
        <ele>336</ele>
        <time>2013-08-13T13:17:37Z</time>
      </trkpt>
      <trkpt lat="47.17033" lon="3.63075">
        <ele>329</ele>
        <time>2013-08-13T13:17:45Z</time>
      </trkpt>
      <trkpt lat="47.17045" lon="3.6303">
        <ele>326</ele>
        <time>2013-08-13T13:17:53Z</time>
      </trkpt>
      <trkpt lat="47.17058" lon="3.63002">
        <ele>325</ele>
        <time>2013-08-13T13:17:59Z</time>
      </trkpt>
      <trkpt lat="47.17058" lon="3.63002">
        <ele>325</ele>
        <time>2013-08-13T13:21:03Z</time>
      </trkpt>
      <trkpt lat="47.17072" lon="3.62985">
        <ele>323</ele>
        <time>2013-08-13T13:21:22Z</time>
      </trkpt>
      <trkpt lat="47.17085" lon="3.62961">
        <ele>325</ele>
        <time>2013-08-13T13:21:28Z</time>
      </trkpt>
      <trkpt lat="47.1709" lon="3.62942">
        <ele>324</ele>
        <time>2013-08-13T13:21:32Z</time>
      </trkpt>
      <trkpt lat="47.17091" lon="3.62913">
        <ele>323</ele>
        <time>2013-08-13T13:21:38Z</time>
      </trkpt>
      <trkpt lat="47.17087" lon="3.62887">
        <ele>318</ele>
        <time>2013-08-13T13:21:44Z</time>
      </trkpt>
      <trkpt lat="47.17079" lon="3.62858">
        <ele>318</ele>
        <time>2013-08-13T13:21:50Z</time>
      </trkpt>
      <trkpt lat="47.17073" lon="3.62828">
        <ele>321</ele>
        <time>2013-08-13T13:21:57Z</time>
      </trkpt>
      <trkpt lat="47.17071" lon="3.62806">
        <ele>325</ele>
        <time>2013-08-13T13:22:03Z</time>
      </trkpt>
      <trkpt lat="47.17067" lon="3.62783">
        <ele>325</ele>
        <time>2013-08-13T13:22:08Z</time>
      </trkpt>
      <trkpt lat="47.17062" lon="3.6275">
        <ele>327</ele>
        <time>2013-08-13T13:22:12Z</time>
      </trkpt>
      <trkpt lat="47.17054" lon="3.62723">
        <ele>324</ele>
        <time>2013-08-13T13:22:17Z</time>
      </trkpt>
      <trkpt lat="47.17046" lon="3.62696">
        <ele>319</ele>
        <time>2013-08-13T13:22:23Z</time>
      </trkpt>
      <trkpt lat="47.17039" lon="3.62667">
        <ele>314</ele>
        <time>2013-08-13T13:22:30Z</time>
      </trkpt>
      <trkpt lat="47.17033" lon="3.6265">
        <ele>312</ele>
        <time>2013-08-13T13:22:34Z</time>
      </trkpt>
      <trkpt lat="47.17024" lon="3.62616">
        <ele>317</ele>
        <time>2013-08-13T13:22:41Z</time>
      </trkpt>
      <trkpt lat="47.17012" lon="3.62586">
        <ele>314</ele>
        <time>2013-08-13T13:22:48Z</time>
      </trkpt>
      <trkpt lat="47.17001" lon="3.62554">
        <ele>309</ele>
        <time>2013-08-13T13:22:54Z</time>
      </trkpt>
      <trkpt lat="47.16992" lon="3.62523">
        <ele>312</ele>
        <time>2013-08-13T13:23:00Z</time>
      </trkpt>
      <trkpt lat="47.16981" lon="3.62482">
        <ele>312</ele>
        <time>2013-08-13T13:23:08Z</time>
      </trkpt>
      <trkpt lat="47.16974" lon="3.62446">
        <ele>312</ele>
        <time>2013-08-13T13:23:15Z</time>
      </trkpt>
      <trkpt lat="47.1697" lon="3.62422">
        <ele>313</ele>
        <time>2013-08-13T13:23:21Z</time>
      </trkpt>
      <trkpt lat="47.16963" lon="3.62398">
        <ele>304</ele>
        <time>2013-08-13T13:23:30Z</time>
      </trkpt>
      <trkpt lat="47.16963" lon="3.62398">
        <ele>304</ele>
        <time>2013-08-13T13:23:35Z</time>
      </trkpt>
      <trkpt lat="47.16949" lon="3.62392">
        <ele>319</ele>
        <time>2013-08-13T13:23:45Z</time>
      </trkpt>
      <trkpt lat="47.1694" lon="3.62396">
        <ele>316</ele>
        <time>2013-08-13T13:23:49Z</time>
      </trkpt>
      <trkpt lat="47.16957" lon="3.62401">
        <ele>315</ele>
        <time>2013-08-13T13:27:13Z</time>
      </trkpt>
      <trkpt lat="47.16966" lon="3.62424">
        <ele>318</ele>
        <time>2013-08-13T13:27:21Z</time>
      </trkpt>
      <trkpt lat="47.16973" lon="3.62451">
        <ele>318</ele>
        <time>2013-08-13T13:27:29Z</time>
      </trkpt>
      <trkpt lat="47.16981" lon="3.62478">
        <ele>324</ele>
        <time>2013-08-13T13:27:38Z</time>
      </trkpt>
      <trkpt lat="47.16986" lon="3.62497">
        <ele>326</ele>
        <time>2013-08-13T13:27:44Z</time>
      </trkpt>
      <trkpt lat="47.16991" lon="3.62518">
        <ele>328</ele>
        <time>2013-08-13T13:27:52Z</time>
      </trkpt>
      <trkpt lat="47.17003" lon="3.62553">
        <ele>325</ele>
        <time>2013-08-13T13:28:04Z</time>
      </trkpt>
      <trkpt lat="47.17008" lon="3.62571">
        <ele>329</ele>
        <time>2013-08-13T13:28:10Z</time>
      </trkpt>
      <trkpt lat="47.17014" lon="3.62591">
        <ele>322</ele>
        <time>2013-08-13T13:28:15Z</time>
      </trkpt>
      <trkpt lat="47.17022" lon="3.62615">
        <ele>327</ele>
        <time>2013-08-13T13:28:23Z</time>
      </trkpt>
      <trkpt lat="47.1703" lon="3.62649">
        <ele>332</ele>
        <time>2013-08-13T13:28:32Z</time>
      </trkpt>
      <trkpt lat="47.17038" lon="3.62677">
        <ele>330</ele>
        <time>2013-08-13T13:28:40Z</time>
      </trkpt>
      <trkpt lat="47.17047" lon="3.62702">
        <ele>329</ele>
        <time>2013-08-13T13:28:49Z</time>
      </trkpt>
      <trkpt lat="47.17057" lon="3.62731">
        <ele>329</ele>
        <time>2013-08-13T13:28:56Z</time>
      </trkpt>
      <trkpt lat="47.17064" lon="3.62757">
        <ele>324</ele>
        <time>2013-08-13T13:29:02Z</time>
      </trkpt>
      <trkpt lat="47.17068" lon="3.62774">
        <ele>321</ele>
        <time>2013-08-13T13:29:06Z</time>
      </trkpt>
      <trkpt lat="47.17075" lon="3.62809">
        <ele>322</ele>
        <time>2013-08-13T13:29:15Z</time>
      </trkpt>
      <trkpt lat="47.17081" lon="3.62841">
        <ele>326</ele>
        <time>2013-08-13T13:29:23Z</time>
      </trkpt>
      <trkpt lat="47.17088" lon="3.62869">
        <ele>331</ele>
        <time>2013-08-13T13:29:30Z</time>
      </trkpt>
      <trkpt lat="47.17089" lon="3.62907">
        <ele>323</ele>
        <time>2013-08-13T13:29:37Z</time>
      </trkpt>
      <trkpt lat="47.17086" lon="3.6294">
        <ele>313</ele>
        <time>2013-08-13T13:29:44Z</time>
      </trkpt>
      <trkpt lat="47.17075" lon="3.62974">
        <ele>321</ele>
        <time>2013-08-13T13:29:51Z</time>
      </trkpt>
      <trkpt lat="47.17063" lon="3.62995">
        <ele>323</ele>
        <time>2013-08-13T13:29:56Z</time>
      </trkpt>
      <trkpt lat="47.17046" lon="3.63022">
        <ele>318</ele>
        <time>2013-08-13T13:30:03Z</time>
      </trkpt>
      <trkpt lat="47.17034" lon="3.63049">
        <ele>322</ele>
        <time>2013-08-13T13:30:10Z</time>
      </trkpt>
      <trkpt lat="47.1703" lon="3.63071">
        <ele>321</ele>
        <time>2013-08-13T13:30:16Z</time>
      </trkpt>
      <trkpt lat="47.17025" lon="3.63096">
        <ele>322</ele>
        <time>2013-08-13T13:30:23Z</time>
      </trkpt>
      <trkpt lat="47.17023" lon="3.63113">
        <ele>320</ele>
        <time>2013-08-13T13:30:33Z</time>
      </trkpt>
      <trkpt lat="47.17022" lon="3.63137">
        <ele>330</ele>
        <time>2013-08-13T13:30:48Z</time>
      </trkpt>
      <trkpt lat="47.17017" lon="3.63169">
        <ele>330</ele>
        <time>2013-08-13T13:31:03Z</time>
      </trkpt>
      <trkpt lat="47.1701" lon="3.63195">
        <ele>328</ele>
        <time>2013-08-13T13:31:10Z</time>
      </trkpt>
      <trkpt lat="47.17009" lon="3.63209">
        <ele>330</ele>
        <time>2013-08-13T13:31:15Z</time>
      </trkpt>
      <trkpt lat="47.17006" lon="3.63231">
        <ele>323</ele>
        <time>2013-08-13T13:31:29Z</time>
      </trkpt>
      <trkpt lat="47.17004" lon="3.63249">
        <ele>320</ele>
        <time>2013-08-13T13:31:35Z</time>
      </trkpt>
      <trkpt lat="47.17003" lon="3.63262">
        <ele>317</ele>
        <time>2013-08-13T13:31:40Z</time>
      </trkpt>
      <trkpt lat="47.17004" lon="3.63293">
        <ele>321</ele>
        <time>2013-08-13T13:31:50Z</time>
      </trkpt>
      <trkpt lat="47.17003" lon="3.6332">
        <ele>339</ele>
        <time>2013-08-13T13:32:00Z</time>
      </trkpt>
      <trkpt lat="47.17004" lon="3.63348">
        <ele>357</ele>
        <time>2013-08-13T13:32:09Z</time>
      </trkpt>
      <trkpt lat="47.17002" lon="3.63379">
        <ele>347</ele>
        <time>2013-08-13T13:32:17Z</time>
      </trkpt>
      <trkpt lat="47.16994" lon="3.63417">
        <ele>326</ele>
        <time>2013-08-13T13:32:25Z</time>
      </trkpt>
      <trkpt lat="47.16989" lon="3.6344">
        <ele>325</ele>
        <time>2013-08-13T13:32:31Z</time>
      </trkpt>
      <trkpt lat="47.1698" lon="3.63468">
        <ele>330</ele>
        <time>2013-08-13T13:32:38Z</time>
      </trkpt>
      <trkpt lat="47.16973" lon="3.63491">
        <ele>337</ele>
        <time>2013-08-13T13:32:43Z</time>
      </trkpt>
      <trkpt lat="47.16966" lon="3.63514">
        <ele>329</ele>
        <time>2013-08-13T13:32:49Z</time>
      </trkpt>
      <trkpt lat="47.1696" lon="3.63546">
        <ele>339</ele>
        <time>2013-08-13T13:32:56Z</time>
      </trkpt>
      <trkpt lat="47.16964" lon="3.63588">
        <ele>338</ele>
        <time>2013-08-13T13:33:04Z</time>
      </trkpt>
      <trkpt lat="47.16971" lon="3.63622">
        <ele>332</ele>
        <time>2013-08-13T13:33:10Z</time>
      </trkpt>
      <trkpt lat="47.16975" lon="3.6364">
        <ele>325</ele>
        <time>2013-08-13T13:33:13Z</time>
      </trkpt>
      <trkpt lat="47.16974" lon="3.63673">
        <ele>321</ele>
        <time>2013-08-13T13:33:19Z</time>
      </trkpt>
      <trkpt lat="47.16972" lon="3.63704">
        <ele>322</ele>
        <time>2013-08-13T13:33:24Z</time>
      </trkpt>
      <trkpt lat="47.16968" lon="3.63756">
        <ele>330</ele>
        <time>2013-08-13T13:33:31Z</time>
      </trkpt>
      <trkpt lat="47.16949" lon="3.63813">
        <ele>319</ele>
        <time>2013-08-13T13:33:37Z</time>
      </trkpt>
      <trkpt lat="47.16934" lon="3.63848">
        <ele>315</ele>
        <time>2013-08-13T13:33:42Z</time>
      </trkpt>
      <trkpt lat="47.16929" lon="3.63868">
        <ele>320</ele>
        <time>2013-08-13T13:33:45Z</time>
      </trkpt>
      <trkpt lat="47.16918" lon="3.63894">
        <ele>323</ele>
        <time>2013-08-13T13:33:50Z</time>
      </trkpt>
      <trkpt lat="47.16911" lon="3.63917">
        <ele>317</ele>
        <time>2013-08-13T13:33:56Z</time>
      </trkpt>
      <trkpt lat="47.16894" lon="3.63958">
        <ele>328</ele>
        <time>2013-08-13T13:34:05Z</time>
      </trkpt>
      <trkpt lat="47.16891" lon="3.63986">
        <ele>328</ele>
        <time>2013-08-13T13:34:11Z</time>
      </trkpt>
      <trkpt lat="47.16893" lon="3.64013">
        <ele>310</ele>
        <time>2013-08-13T13:34:17Z</time>
      </trkpt>
      <trkpt lat="47.16885" lon="3.64048">
        <ele>313</ele>
        <time>2013-08-13T13:34:24Z</time>
      </trkpt>
      <trkpt lat="47.16875" lon="3.64085">
        <ele>318</ele>
        <time>2013-08-13T13:34:31Z</time>
      </trkpt>
      <trkpt lat="47.16866" lon="3.64119">
        <ele>319</ele>
        <time>2013-08-13T13:34:37Z</time>
      </trkpt>
      <trkpt lat="47.16858" lon="3.64149">
        <ele>316</ele>
        <time>2013-08-13T13:34:44Z</time>
      </trkpt>
      <trkpt lat="47.1685" lon="3.64176">
        <ele>313</ele>
        <time>2013-08-13T13:34:49Z</time>
      </trkpt>
      <trkpt lat="47.16843" lon="3.64194">
        <ele>316</ele>
        <time>2013-08-13T13:34:55Z</time>
      </trkpt>
      <trkpt lat="47.16831" lon="3.64225">
        <ele>314</ele>
        <time>2013-08-13T13:35:01Z</time>
      </trkpt>
      <trkpt lat="47.16821" lon="3.6425">
        <ele>313</ele>
        <time>2013-08-13T13:35:06Z</time>
      </trkpt>
      <trkpt lat="47.16812" lon="3.64273">
        <ele>315</ele>
        <time>2013-08-13T13:35:13Z</time>
      </trkpt>
      <trkpt lat="47.16796" lon="3.6431">
        <ele>302</ele>
        <time>2013-08-13T13:35:23Z</time>
      </trkpt>
      <trkpt lat="47.16785" lon="3.64354">
        <ele>306</ele>
        <time>2013-08-13T13:35:31Z</time>
      </trkpt>
      <trkpt lat="47.1678" lon="3.64374">
        <ele>314</ele>
        <time>2013-08-13T13:35:37Z</time>
      </trkpt>
      <trkpt lat="47.16767" lon="3.64403">
        <ele>323</ele>
        <time>2013-08-13T13:35:50Z</time>
      </trkpt>
      <trkpt lat="47.16752" lon="3.64437">
        <ele>318</ele>
        <time>2013-08-13T13:35:57Z</time>
      </trkpt>
      <trkpt lat="47.16734" lon="3.64478">
        <ele>310</ele>
        <time>2013-08-13T13:36:04Z</time>
      </trkpt>
      <trkpt lat="47.16724" lon="3.64501">
        <ele>313</ele>
        <time>2013-08-13T13:36:09Z</time>
      </trkpt>
      <trkpt lat="47.16713" lon="3.64532">
        <ele>315</ele>
        <time>2013-08-13T13:36:16Z</time>
      </trkpt>
      <trkpt lat="47.16703" lon="3.64557">
        <ele>314</ele>
        <time>2013-08-13T13:36:22Z</time>
      </trkpt>
      <trkpt lat="47.1669" lon="3.64588">
        <ele>319</ele>
        <time>2013-08-13T13:36:29Z</time>
      </trkpt>
      <trkpt lat="47.16679" lon="3.64628">
        <ele>311</ele>
        <time>2013-08-13T13:36:37Z</time>
      </trkpt>
      <trkpt lat="47.16676" lon="3.64661">
        <ele>315</ele>
        <time>2013-08-13T13:36:43Z</time>
      </trkpt>
      <trkpt lat="47.16681" lon="3.64702">
        <ele>328</ele>
        <time>2013-08-13T13:36:50Z</time>
      </trkpt>
      <trkpt lat="47.16689" lon="3.64732">
        <ele>328</ele>
        <time>2013-08-13T13:36:56Z</time>
      </trkpt>
      <trkpt lat="47.16701" lon="3.64755">
        <ele>323</ele>
        <time>2013-08-13T13:37:02Z</time>
      </trkpt>
      <trkpt lat="47.16716" lon="3.6479">
        <ele>323</ele>
        <time>2013-08-13T13:37:10Z</time>
      </trkpt>
      <trkpt lat="47.16733" lon="3.64815">
        <ele>328</ele>
        <time>2013-08-13T13:37:17Z</time>
      </trkpt>
      <trkpt lat="47.16741" lon="3.64829">
        <ele>330</ele>
        <time>2013-08-13T13:37:20Z</time>
      </trkpt>
      <trkpt lat="47.16757" lon="3.64859">
        <ele>333</ele>
        <time>2013-08-13T13:37:27Z</time>
      </trkpt>
      <trkpt lat="47.16773" lon="3.64892">
        <ele>338</ele>
        <time>2013-08-13T13:37:34Z</time>
      </trkpt>
      <trkpt lat="47.16782" lon="3.64945">
        <ele>334</ele>
        <time>2013-08-13T13:37:41Z</time>
      </trkpt>
      <trkpt lat="47.16793" lon="3.64989">
        <ele>335</ele>
        <time>2013-08-13T13:37:48Z</time>
      </trkpt>
      <trkpt lat="47.16803" lon="3.65014">
        <ele>333</ele>
        <time>2013-08-13T13:37:53Z</time>
      </trkpt>
      <trkpt lat="47.16815" lon="3.65042">
        <ele>331</ele>
        <time>2013-08-13T13:37:59Z</time>
      </trkpt>
      <trkpt lat="47.16832" lon="3.65072">
        <ele>331</ele>
        <time>2013-08-13T13:38:06Z</time>
      </trkpt>
      <trkpt lat="47.16847" lon="3.65097">
        <ele>328</ele>
        <time>2013-08-13T13:38:11Z</time>
      </trkpt>
      <trkpt lat="47.16865" lon="3.65131">
        <ele>330</ele>
        <time>2013-08-13T13:38:18Z</time>
      </trkpt>
      <trkpt lat="47.16882" lon="3.65153">
        <ele>323</ele>
        <time>2013-08-13T13:38:24Z</time>
      </trkpt>
      <trkpt lat="47.16901" lon="3.65182">
        <ele>324</ele>
        <time>2013-08-13T13:38:30Z</time>
      </trkpt>
      <trkpt lat="47.16922" lon="3.65205">
        <ele>323</ele>
        <time>2013-08-13T13:38:36Z</time>
      </trkpt>
      <trkpt lat="47.16939" lon="3.65225">
        <ele>325</ele>
        <time>2013-08-13T13:38:41Z</time>
      </trkpt>
      <trkpt lat="47.16955" lon="3.65251">
        <ele>320</ele>
        <time>2013-08-13T13:38:46Z</time>
      </trkpt>
      <trkpt lat="47.16969" lon="3.65273">
        <ele>318</ele>
        <time>2013-08-13T13:38:51Z</time>
      </trkpt>
      <trkpt lat="47.16984" lon="3.65299">
        <ele>319</ele>
        <time>2013-08-13T13:38:56Z</time>
      </trkpt>
      <trkpt lat="47.17005" lon="3.65339">
        <ele>316</ele>
        <time>2013-08-13T13:39:05Z</time>
      </trkpt>
      <trkpt lat="47.17015" lon="3.65357">
        <ele>322</ele>
        <time>2013-08-13T13:39:09Z</time>
      </trkpt>
      <trkpt lat="47.17027" lon="3.65391">
        <ele>328</ele>
        <time>2013-08-13T13:39:15Z</time>
      </trkpt>
      <trkpt lat="47.17035" lon="3.65419">
        <ele>322</ele>
        <time>2013-08-13T13:39:21Z</time>
      </trkpt>
      <trkpt lat="47.17042" lon="3.6544">
        <ele>326</ele>
        <time>2013-08-13T13:39:26Z</time>
      </trkpt>
      <trkpt lat="47.17053" lon="3.65468">
        <ele>325</ele>
        <time>2013-08-13T13:39:32Z</time>
      </trkpt>
      <trkpt lat="47.17067" lon="3.65494">
        <ele>323</ele>
        <time>2013-08-13T13:39:42Z</time>
      </trkpt>
      <trkpt lat="47.17079" lon="3.6555">
        <ele>322</ele>
        <time>2013-08-13T13:39:51Z</time>
      </trkpt>
      <trkpt lat="47.17083" lon="3.65573">
        <ele>329</ele>
        <time>2013-08-13T13:39:56Z</time>
      </trkpt>
      <trkpt lat="47.17093" lon="3.656">
        <ele>327</ele>
        <time>2013-08-13T13:40:03Z</time>
      </trkpt>
      <trkpt lat="47.17103" lon="3.65625">
        <ele>324</ele>
        <time>2013-08-13T13:40:08Z</time>
      </trkpt>
      <trkpt lat="47.17116" lon="3.65661">
        <ele>324</ele>
        <time>2013-08-13T13:40:15Z</time>
      </trkpt>
      <trkpt lat="47.17136" lon="3.65702">
        <ele>321</ele>
        <time>2013-08-13T13:40:24Z</time>
      </trkpt>
      <trkpt lat="47.17151" lon="3.65725">
        <ele>317</ele>
        <time>2013-08-13T13:40:30Z</time>
      </trkpt>
      <trkpt lat="47.17168" lon="3.65747">
        <ele>315</ele>
        <time>2013-08-13T13:40:36Z</time>
      </trkpt>
      <trkpt lat="47.1718" lon="3.65755">
        <ele>317</ele>
        <time>2013-08-13T13:40:39Z</time>
      </trkpt>
      <trkpt lat="47.17195" lon="3.65763">
        <ele>320</ele>
        <time>2013-08-13T13:40:43Z</time>
      </trkpt>
      <trkpt lat="47.17213" lon="3.65774">
        <ele>321</ele>
        <time>2013-08-13T13:40:48Z</time>
      </trkpt>
      <trkpt lat="47.17237" lon="3.65785">
        <ele>324</ele>
        <time>2013-08-13T13:40:53Z</time>
      </trkpt>
      <trkpt lat="47.17266" lon="3.658">
        <ele>329</ele>
        <time>2013-08-13T13:40:59Z</time>
      </trkpt>
      <trkpt lat="47.17292" lon="3.65811">
        <ele>330</ele>
        <time>2013-08-13T13:41:05Z</time>
      </trkpt>
      <trkpt lat="47.17316" lon="3.65825">
        <ele>331</ele>
        <time>2013-08-13T13:41:12Z</time>
      </trkpt>
      <trkpt lat="47.17337" lon="3.65844">
        <ele>326</ele>
        <time>2013-08-13T13:41:17Z</time>
      </trkpt>
      <trkpt lat="47.17346" lon="3.65853">
        <ele>324</ele>
        <time>2013-08-13T13:41:20Z</time>
      </trkpt>
      <trkpt lat="47.17362" lon="3.65855">
        <ele>333</ele>
        <time>2013-08-13T13:43:17Z</time>
      </trkpt>
      <trkpt lat="47.17373" lon="3.65864">
        <ele>317</ele>
        <time>2013-08-13T13:43:22Z</time>
      </trkpt>
      <trkpt lat="47.17385" lon="3.65878">
        <ele>311</ele>
        <time>2013-08-13T13:43:28Z</time>
      </trkpt>
      <trkpt lat="47.17404" lon="3.65895">
        <ele>314</ele>
        <time>2013-08-13T13:43:35Z</time>
      </trkpt>
      <trkpt lat="47.17416" lon="3.65908">
        <ele>318</ele>
        <time>2013-08-13T13:43:40Z</time>
      </trkpt>
      <trkpt lat="47.1744" lon="3.65931">
        <ele>313</ele>
        <time>2013-08-13T13:43:50Z</time>
      </trkpt>
      <trkpt lat="47.17461" lon="3.65953">
        <ele>306</ele>
        <time>2013-08-13T13:44:00Z</time>
      </trkpt>
      <trkpt lat="47.17481" lon="3.65971">
        <ele>314</ele>
        <time>2013-08-13T13:44:07Z</time>
      </trkpt>
      <trkpt lat="47.17502" lon="3.65988">
        <ele>313</ele>
        <time>2013-08-13T13:44:13Z</time>
      </trkpt>
      <trkpt lat="47.17525" lon="3.66012">
        <ele>312</ele>
        <time>2013-08-13T13:44:20Z</time>
      </trkpt>
      <trkpt lat="47.17547" lon="3.66032">
        <ele>311</ele>
        <time>2013-08-13T13:44:26Z</time>
      </trkpt>
      <trkpt lat="47.17566" lon="3.6605">
        <ele>313</ele>
        <time>2013-08-13T13:44:31Z</time>
      </trkpt>
      <trkpt lat="47.17576" lon="3.66059">
        <ele>311</ele>
        <time>2013-08-13T13:44:34Z</time>
      </trkpt>
      <trkpt lat="47.17596" lon="3.66076">
        <ele>312</ele>
        <time>2013-08-13T13:44:40Z</time>
      </trkpt>
      <trkpt lat="47.17608" lon="3.66085">
        <ele>314</ele>
        <time>2013-08-13T13:44:44Z</time>
      </trkpt>
      <trkpt lat="47.17623" lon="3.66098">
        <ele>305</ele>
        <time>2013-08-13T13:44:49Z</time>
      </trkpt>
      <trkpt lat="47.17633" lon="3.66107">
        <ele>303</ele>
        <time>2013-08-13T13:44:52Z</time>
      </trkpt>
      <trkpt lat="47.17649" lon="3.66124">
        <ele>306</ele>
        <time>2013-08-13T13:44:57Z</time>
      </trkpt>
      <trkpt lat="47.17667" lon="3.66146">
        <ele>304</ele>
        <time>2013-08-13T13:45:03Z</time>
      </trkpt>
      <trkpt lat="47.17678" lon="3.66162">
        <ele>309</ele>
        <time>2013-08-13T13:45:09Z</time>
      </trkpt>
      <trkpt lat="47.1769" lon="3.66172">
        <ele>312</ele>
        <time>2013-08-13T13:45:19Z</time>
      </trkpt>
      <trkpt lat="47.17705" lon="3.66145">
        <ele>311</ele>
        <time>2013-08-13T13:45:30Z</time>
      </trkpt>
      <trkpt lat="47.17728" lon="3.66126">
        <ele>307</ele>
        <time>2013-08-13T13:45:42Z</time>
      </trkpt>
      <trkpt lat="47.17728" lon="3.66126">
        <ele>307</ele>
        <time>2013-08-13T13:45:48Z</time>
      </trkpt>
      <trkpt lat="47.17751" lon="3.6616">
        <ele>309</ele>
        <time>2013-08-13T13:46:21Z</time>
      </trkpt>
      <trkpt lat="47.17766" lon="3.66172">
        <ele>314</ele>
        <time>2013-08-13T13:46:32Z</time>
      </trkpt>
      <trkpt lat="47.17789" lon="3.662">
        <ele>316</ele>
        <time>2013-08-13T13:46:41Z</time>
      </trkpt>
      <trkpt lat="47.17796" lon="3.66224">
        <ele>319</ele>
        <time>2013-08-13T13:46:48Z</time>
      </trkpt>
      <trkpt lat="47.17797" lon="3.66245">
        <ele>322</ele>
        <time>2013-08-13T13:46:54Z</time>
      </trkpt>
      <trkpt lat="47.17793" lon="3.66275">
        <ele>302</ele>
        <time>2013-08-13T13:47:03Z</time>
      </trkpt>
      <trkpt lat="47.17793" lon="3.66279">
        <ele>303</ele>
        <time>2013-08-13T13:47:04Z</time>
      </trkpt>
      <trkpt lat="47.1779" lon="3.66306">
        <ele>311</ele>
        <time>2013-08-13T13:47:57Z</time>
      </trkpt>
      <trkpt lat="47.1778" lon="3.66346">
        <ele>301</ele>
        <time>2013-08-13T13:48:06Z</time>
      </trkpt>
      <trkpt lat="47.17769" lon="3.66373">
        <ele>301</ele>
        <time>2013-08-13T13:48:12Z</time>
      </trkpt>
      <trkpt lat="47.17762" lon="3.66399">
        <ele>307</ele>
        <time>2013-08-13T13:48:19Z</time>
      </trkpt>
      <trkpt lat="47.1776" lon="3.66417">
        <ele>304</ele>
        <time>2013-08-13T13:48:27Z</time>
      </trkpt>
      <trkpt lat="47.17755" lon="3.66418">
        <ele>307</ele>
        <time>2013-08-13T13:48:30Z</time>
      </trkpt>
      <trkpt lat="47.17751" lon="3.66429">
        <ele>303</ele>
        <time>2013-08-13T13:48:48Z</time>
      </trkpt>
      <trkpt lat="47.17746" lon="3.66447">
        <ele>309</ele>
        <time>2013-08-13T13:48:55Z</time>
      </trkpt>
      <trkpt lat="47.17737" lon="3.66478">
        <ele>303</ele>
        <time>2013-08-13T13:49:05Z</time>
      </trkpt>
      <trkpt lat="47.17732" lon="3.66512">
        <ele>301</ele>
        <time>2013-08-13T13:49:13Z</time>
      </trkpt>
      <trkpt lat="47.17735" lon="3.66542">
        <ele>300</ele>
        <time>2013-08-13T13:49:19Z</time>
      </trkpt>
      <trkpt lat="47.17743" lon="3.66568">
        <ele>306</ele>
        <time>2013-08-13T13:49:27Z</time>
      </trkpt>
      <trkpt lat="47.17747" lon="3.66577">
        <ele>307</ele>
        <time>2013-08-13T13:49:30Z</time>
      </trkpt>
      <trkpt lat="47.17754" lon="3.66596">
        <ele>306</ele>
        <time>2013-08-13T13:49:38Z</time>
      </trkpt>
      <trkpt lat="47.17764" lon="3.66618">
        <ele>307</ele>
        <time>2013-08-13T13:49:46Z</time>
      </trkpt>
      <trkpt lat="47.17777" lon="3.66648">
        <ele>304</ele>
        <time>2013-08-13T13:49:55Z</time>
      </trkpt>
      <trkpt lat="47.17783" lon="3.66666">
        <ele>304</ele>
        <time>2013-08-13T13:50:00Z</time>
      </trkpt>
      <trkpt lat="47.17787" lon="3.66676">
        <ele>304</ele>
        <time>2013-08-13T13:50:03Z</time>
      </trkpt>
      <trkpt lat="47.1779" lon="3.66686">
        <ele>302</ele>
        <time>2013-08-13T13:50:06Z</time>
      </trkpt>
      <trkpt lat="47.17793" lon="3.66696">
        <ele>303</ele>
        <time>2013-08-13T13:50:09Z</time>
      </trkpt>
      <trkpt lat="47.17796" lon="3.66704">
        <ele>304</ele>
        <time>2013-08-13T13:50:12Z</time>
      </trkpt>
      <trkpt lat="47.178" lon="3.66724">
        <ele>301</ele>
        <time>2013-08-13T13:50:19Z</time>
      </trkpt>
      <trkpt lat="47.17817" lon="3.66784">
        <ele>296</ele>
        <time>2013-08-13T14:00:20Z</time>
      </trkpt>
      <trkpt lat="47.17827" lon="3.66807">
        <ele>289</ele>
        <time>2013-08-13T14:00:29Z</time>
      </trkpt>
      <trkpt lat="47.17831" lon="3.66835">
        <ele>265</ele>
        <time>2013-08-13T14:00:38Z</time>
      </trkpt>
      <trkpt lat="47.17839" lon="3.66855">
        <ele>290</ele>
        <time>2013-08-13T14:00:46Z</time>
      </trkpt>
      <trkpt lat="47.17853" lon="3.66881">
        <ele>298</ele>
        <time>2013-08-13T14:00:59Z</time>
      </trkpt>
      <trkpt lat="47.17861" lon="3.66893">
        <ele>293</ele>
        <time>2013-08-13T14:01:04Z</time>
      </trkpt>
      <trkpt lat="47.17868" lon="3.6692">
        <ele>296</ele>
        <time>2013-08-13T14:03:48Z</time>
      </trkpt>
      <trkpt lat="47.17874" lon="3.66941">
        <ele>298</ele>
        <time>2013-08-13T14:03:55Z</time>
      </trkpt>
      <trkpt lat="47.17884" lon="3.66956">
        <ele>286</ele>
        <time>2013-08-13T14:04:02Z</time>
      </trkpt>
      <trkpt lat="47.17894" lon="3.66986">
        <ele>292</ele>
        <time>2013-08-13T14:04:12Z</time>
      </trkpt>
      <trkpt lat="47.17899" lon="3.67014">
        <ele>297</ele>
        <time>2013-08-13T14:04:20Z</time>
      </trkpt>
      <trkpt lat="47.179" lon="3.67019">
        <ele>294</ele>
        <time>2013-08-13T14:04:23Z</time>
      </trkpt>
      <trkpt lat="47.17897" lon="3.66997">
        <ele>292</ele>
        <time>2013-08-13T14:07:38Z</time>
      </trkpt>
      <trkpt lat="47.17897" lon="3.66997">
        <ele>292</ele>
        <time>2013-08-13T14:07:44Z</time>
      </trkpt>
      <trkpt lat="47.17913" lon="3.67031">
        <ele>300</ele>
        <time>2013-08-13T14:07:48Z</time>
      </trkpt>
      <trkpt lat="47.17923" lon="3.67052">
        <ele>295</ele>
        <time>2013-08-13T14:07:52Z</time>
      </trkpt>
      <trkpt lat="47.17936" lon="3.67082">
        <ele>296</ele>
        <time>2013-08-13T14:07:59Z</time>
      </trkpt>
      <trkpt lat="47.17949" lon="3.67108">
        <ele>299</ele>
        <time>2013-08-13T14:08:06Z</time>
      </trkpt>
      <trkpt lat="47.17962" lon="3.67119">
        <ele>298</ele>
        <time>2013-08-13T14:08:12Z</time>
      </trkpt>
      <trkpt lat="47.17983" lon="3.67127">
        <ele>292</ele>
        <time>2013-08-13T14:08:23Z</time>
      </trkpt>
      <trkpt lat="47.17993" lon="3.67134">
        <ele>297</ele>
        <time>2013-08-13T14:08:36Z</time>
      </trkpt>
      <trkpt lat="47.17993" lon="3.67134">
        <ele>297</ele>
        <time>2013-08-13T14:12:09Z</time>
      </trkpt>
      <trkpt lat="47.17982" lon="3.67113">
        <ele>294</ele>
        <time>2013-08-13T14:12:29Z</time>
      </trkpt>
      <trkpt lat="47.17982" lon="3.67113">
        <ele>294</ele>
        <time>2013-08-13T14:12:37Z</time>
      </trkpt>
      <trkpt lat="47.18008" lon="3.67125">
        <ele>308</ele>
        <time>2013-08-13T14:16:56Z</time>
      </trkpt>
      <trkpt lat="47.18008" lon="3.67125">
        <ele>308</ele>
        <time>2013-08-13T14:19:00Z</time>
      </trkpt>
      <trkpt lat="47.17996" lon="3.67114">
        <ele>299</ele>
        <time>2013-08-13T14:29:59Z</time>
      </trkpt>
      <trkpt lat="47.17996" lon="3.67114">
        <ele>299</ele>
        <time>2013-08-13T14:32:15Z</time>
      </trkpt>
      <trkpt lat="47.18008" lon="3.67146">
        <ele>310</ele>
        <time>2013-08-13T14:33:03Z</time>
      </trkpt>
      <trkpt lat="47.18026" lon="3.67148">
        <ele>310</ele>
        <time>2013-08-13T14:33:09Z</time>
      </trkpt>
      <trkpt lat="47.18058" lon="3.67155">
        <ele>286</ele>
        <time>2013-08-13T14:33:17Z</time>
      </trkpt>
      <trkpt lat="47.18084" lon="3.67168">
        <ele>290</ele>
        <time>2013-08-13T14:33:24Z</time>
      </trkpt>
      <trkpt lat="47.1811" lon="3.6718">
        <ele>294</ele>
        <time>2013-08-13T14:33:32Z</time>
      </trkpt>
      <trkpt lat="47.18133" lon="3.67193">
        <ele>302</ele>
        <time>2013-08-13T14:33:39Z</time>
      </trkpt>
      <trkpt lat="47.18147" lon="3.67198">
        <ele>306</ele>
        <time>2013-08-13T14:33:46Z</time>
      </trkpt>
      <trkpt lat="47.18188" lon="3.67193">
        <ele>303</ele>
        <time>2013-08-13T14:33:57Z</time>
      </trkpt>
      <trkpt lat="47.18209" lon="3.67183">
        <ele>298</ele>
        <time>2013-08-13T14:34:02Z</time>
      </trkpt>
      <trkpt lat="47.18231" lon="3.67183">
        <ele>285</ele>
        <time>2013-08-13T14:34:07Z</time>
      </trkpt>
      <trkpt lat="47.18244" lon="3.67184">
        <ele>287</ele>
        <time>2013-08-13T14:34:10Z</time>
      </trkpt>
      <trkpt lat="47.18256" lon="3.67184">
        <ele>282</ele>
        <time>2013-08-13T14:34:14Z</time>
      </trkpt>
      <trkpt lat="47.18272" lon="3.67186">
        <ele>292</ele>
        <time>2013-08-13T14:34:18Z</time>
      </trkpt>
      <trkpt lat="47.18297" lon="3.67186">
        <ele>290</ele>
        <time>2013-08-13T14:34:25Z</time>
      </trkpt>
      <trkpt lat="47.18322" lon="3.67194">
        <ele>297</ele>
        <time>2013-08-13T14:34:34Z</time>
      </trkpt>
      <trkpt lat="47.18344" lon="3.67218">
        <ele>288</ele>
        <time>2013-08-13T14:34:41Z</time>
      </trkpt>
      <trkpt lat="47.18369" lon="3.67204">
        <ele>270</ele>
        <time>2013-08-13T14:36:13Z</time>
      </trkpt>
      <trkpt lat="47.18398" lon="3.67241">
        <ele>285</ele>
        <time>2013-08-13T14:36:24Z</time>
      </trkpt>
      <trkpt lat="47.18416" lon="3.67263">
        <ele>286</ele>
        <time>2013-08-13T14:36:31Z</time>
      </trkpt>
      <trkpt lat="47.18433" lon="3.67282">
        <ele>287</ele>
        <time>2013-08-13T14:36:38Z</time>
      </trkpt>
      <trkpt lat="47.18444" lon="3.67303">
        <ele>284</ele>
        <time>2013-08-13T14:36:44Z</time>
      </trkpt>
      <trkpt lat="47.18456" lon="3.67319">
        <ele>288</ele>
        <time>2013-08-13T14:36:50Z</time>
      </trkpt>
      <trkpt lat="47.18468" lon="3.67337">
        <ele>290</ele>
        <time>2013-08-13T14:36:57Z</time>
      </trkpt>
      <trkpt lat="47.18481" lon="3.67366">
        <ele>286</ele>
        <time>2013-08-13T14:37:09Z</time>
      </trkpt>
      <trkpt lat="47.18488" lon="3.67381">
        <ele>292</ele>
        <time>2013-08-13T14:37:15Z</time>
      </trkpt>
      <trkpt lat="47.185" lon="3.67397">
        <ele>286</ele>
        <time>2013-08-13T14:37:21Z</time>
      </trkpt>
      <trkpt lat="47.18515" lon="3.67429">
        <ele>280</ele>
        <time>2013-08-13T14:37:27Z</time>
      </trkpt>
      <trkpt lat="47.18521" lon="3.67466">
        <ele>285</ele>
        <time>2013-08-13T14:37:33Z</time>
      </trkpt>
      <trkpt lat="47.18522" lon="3.67494">
        <ele>286</ele>
        <time>2013-08-13T14:37:38Z</time>
      </trkpt>
      <trkpt lat="47.18518" lon="3.67518">
        <ele>282</ele>
        <time>2013-08-13T14:37:43Z</time>
      </trkpt>
      <trkpt lat="47.18509" lon="3.67565">
        <ele>288</ele>
        <time>2013-08-13T14:37:51Z</time>
      </trkpt>
      <trkpt lat="47.18505" lon="3.67591">
        <ele>290</ele>
        <time>2013-08-13T14:37:56Z</time>
      </trkpt>
      <trkpt lat="47.18499" lon="3.67623">
        <ele>291</ele>
        <time>2013-08-13T14:38:03Z</time>
      </trkpt>
      <trkpt lat="47.1849" lon="3.67657">
        <ele>293</ele>
        <time>2013-08-13T14:38:12Z</time>
      </trkpt>
      <trkpt lat="47.18491" lon="3.67702">
        <ele>286</ele>
        <time>2013-08-13T14:38:21Z</time>
      </trkpt>
      <trkpt lat="47.18485" lon="3.67734">
        <ele>286</ele>
        <time>2013-08-13T14:38:26Z</time>
      </trkpt>
      <trkpt lat="47.1848" lon="3.67772">
        <ele>290</ele>
        <time>2013-08-13T14:38:32Z</time>
      </trkpt>
      <trkpt lat="47.18473" lon="3.6782">
        <ele>290</ele>
        <time>2013-08-13T14:38:39Z</time>
      </trkpt>
      <trkpt lat="47.18469" lon="3.67859">
        <ele>286</ele>
        <time>2013-08-13T14:38:45Z</time>
      </trkpt>
      <trkpt lat="47.18469" lon="3.67881">
        <ele>289</ele>
        <time>2013-08-13T14:38:49Z</time>
      </trkpt>
      <trkpt lat="47.18471" lon="3.67899">
        <ele>287</ele>
        <time>2013-08-13T14:38:53Z</time>
      </trkpt>
      <trkpt lat="47.18482" lon="3.67942">
        <ele>287</ele>
        <time>2013-08-13T14:38:59Z</time>
      </trkpt>
      <trkpt lat="47.18496" lon="3.67971">
        <ele>285</ele>
        <time>2013-08-13T14:39:04Z</time>
      </trkpt>
      <trkpt lat="47.18513" lon="3.67996">
        <ele>277</ele>
        <time>2013-08-13T14:39:10Z</time>
      </trkpt>
      <trkpt lat="47.18528" lon="3.68015">
        <ele>280</ele>
        <time>2013-08-13T14:39:15Z</time>
      </trkpt>
      <trkpt lat="47.18552" lon="3.68053">
        <ele>275</ele>
        <time>2013-08-13T14:39:22Z</time>
      </trkpt>
      <trkpt lat="47.18563" lon="3.68071">
        <ele>273</ele>
        <time>2013-08-13T14:39:25Z</time>
      </trkpt>
      <trkpt lat="47.18577" lon="3.68094">
        <ele>276</ele>
        <time>2013-08-13T14:39:29Z</time>
      </trkpt>
      <trkpt lat="47.18586" lon="3.68109">
        <ele>279</ele>
        <time>2013-08-13T14:39:32Z</time>
      </trkpt>
      <trkpt lat="47.18599" lon="3.68136">
        <ele>281</ele>
        <time>2013-08-13T14:39:37Z</time>
      </trkpt>
      <trkpt lat="47.18612" lon="3.68163">
        <ele>281</ele>
        <time>2013-08-13T14:39:42Z</time>
      </trkpt>
      <trkpt lat="47.18619" lon="3.68181">
        <ele>279</ele>
        <time>2013-08-13T14:39:45Z</time>
      </trkpt>
      <trkpt lat="47.18628" lon="3.68214">
        <ele>280</ele>
        <time>2013-08-13T14:39:50Z</time>
      </trkpt>
      <trkpt lat="47.18634" lon="3.68248">
        <ele>282</ele>
        <time>2013-08-13T14:39:55Z</time>
      </trkpt>
      <trkpt lat="47.18635" lon="3.68266">
        <ele>281</ele>
        <time>2013-08-13T14:39:58Z</time>
      </trkpt>
      <trkpt lat="47.18638" lon="3.68297">
        <ele>282</ele>
        <time>2013-08-13T14:40:03Z</time>
      </trkpt>
      <trkpt lat="47.18641" lon="3.68323">
        <ele>279</ele>
        <time>2013-08-13T14:40:08Z</time>
      </trkpt>
      <trkpt lat="47.18644" lon="3.68354">
        <ele>280</ele>
        <time>2013-08-13T14:40:14Z</time>
      </trkpt>
      <trkpt lat="47.1865" lon="3.68388">
        <ele>279</ele>
        <time>2013-08-13T14:40:21Z</time>
      </trkpt>
      <trkpt lat="47.18657" lon="3.68415">
        <ele>275</ele>
        <time>2013-08-13T14:40:31Z</time>
      </trkpt>
      <trkpt lat="47.18668" lon="3.68455">
        <ele>277</ele>
        <time>2013-08-13T14:40:39Z</time>
      </trkpt>
      <trkpt lat="47.18676" lon="3.68479">
        <ele>275</ele>
        <time>2013-08-13T14:40:42Z</time>
      </trkpt>
      <trkpt lat="47.18682" lon="3.68503">
        <ele>275</ele>
        <time>2013-08-13T14:40:47Z</time>
      </trkpt>
      <trkpt lat="47.1869" lon="3.68531">
        <ele>275</ele>
        <time>2013-08-13T14:40:52Z</time>
      </trkpt>
      <trkpt lat="47.18699" lon="3.68563">
        <ele>274</ele>
        <time>2013-08-13T14:40:59Z</time>
      </trkpt>
      <trkpt lat="47.18709" lon="3.68603">
        <ele>279</ele>
        <time>2013-08-13T14:41:06Z</time>
      </trkpt>
      <trkpt lat="47.18714" lon="3.68628">
        <ele>281</ele>
        <time>2013-08-13T14:41:14Z</time>
      </trkpt>
      <trkpt lat="47.18714" lon="3.68628">
        <ele>281</ele>
        <time>2013-08-13T14:41:20Z</time>
      </trkpt>
      <trkpt lat="47.18724" lon="3.68657">
        <ele>274</ele>
        <time>2013-08-13T14:41:21Z</time>
      </trkpt>
      <trkpt lat="47.18744" lon="3.68706">
        <ele>273</ele>
        <time>2013-08-13T14:41:28Z</time>
      </trkpt>
      <trkpt lat="47.18773" lon="3.68746">
        <ele>266</ele>
        <time>2013-08-13T14:41:32Z</time>
      </trkpt>
      <trkpt lat="47.18794" lon="3.6877">
        <ele>260</ele>
        <time>2013-08-13T14:41:38Z</time>
      </trkpt>
      <trkpt lat="47.18813" lon="3.68788">
        <ele>277</ele>
        <time>2013-08-13T14:41:45Z</time>
      </trkpt>
      <trkpt lat="47.18823" lon="3.68798">
        <ele>280</ele>
        <time>2013-08-13T14:41:46Z</time>
      </trkpt>
      <trkpt lat="47.18844" lon="3.68814">
        <ele>273</ele>
        <time>2013-08-13T14:41:51Z</time>
      </trkpt>
      <trkpt lat="47.18857" lon="3.68823">
        <ele>271</ele>
        <time>2013-08-13T14:41:56Z</time>
      </trkpt>
      <trkpt lat="47.18876" lon="3.68835">
        <ele>273</ele>
        <time>2013-08-13T14:42:03Z</time>
      </trkpt>
      <trkpt lat="47.18896" lon="3.6885">
        <ele>279</ele>
        <time>2013-08-13T14:42:09Z</time>
      </trkpt>
    </trkseg>
  </trk>
</gpx>